Flight Track Log - Related Links

Times and Time Zones

All times are in EDT time to prevent confusion due to time zone crossing. See the CPA91 flight status page for this flight to view local times or setup timezone preferences in your user account.

Time Position Orientation Groundspeed Altitude Reporting Facility
EDT Latitude Longitude Course Direction KTS MPH feet Rate Location/Type
Fri 05:01:30 PM 33.6333 -84.4833 North 170 196 2,500  Level Atlanta TRACON
Fri 05:02:24 PM 33.6500 -84.5333 292° West 228 262 3,300 1,550 Climbing Atlanta TRACON
Fri 05:03:30 PM 33.7167 -84.5833 328° Northwest 283 326 5,600 2,238 Climbing Atlanta TRACON
Fri 05:04:30 PM 33.8000 -84.5833 360° North 293 337 8,000 1,872 Climbing Atlanta TRACON
Fri 05:05:51 PM 33.9119 -84.5894 357° North 293 337 10,000 1,106 Climbing Atlanta Center
Fri 05:06:51 PM 33.9953 -84.6175 344° North 293 337 10,600 1,150 Climbing Atlanta Center
Fri 05:07:00 PM 34.2264 -84.7000 North  Level FlightAware Approximate
Fri 05:07:51 PM 34.0828 -84.6508 342° North 320 368 12,300  Level Atlanta Center
Fri 05:08:51 PM 34.1725 -84.6842 343° North 345 397 13,900 2,300 Climbing Atlanta Center
Fri 05:09:51 PM 34.2767 -84.7200 344° North 376 433 16,900 2,400 Climbing Atlanta Center
Fri 05:10:51 PM 34.3847 -84.7711 339° North 398 458 18,700 1,960 Climbing Atlanta Center
Fri 05:16:35 PM 35.1069 -85.1013 320° Northwest 476 548 30,100 1,989 Climbing FlightAware ADS-B (KMDQ)
Fri 05:16:56 PM 35.1532 -85.1553 309° West 461 531 30,800 1,645 Climbing FlightAware ADS-B (KMDQ)
Fri 05:17:37 PM 35.2068 -85.2370 308° West 463 533 31,800 840 Climbing FlightAware ADS-B (KMDQ)
Fri 05:18:36 PM 35.2836 -85.3551 309° West 468 539 32,200 1,032 Climbing FlightAware ADS-B (KMDQ)
Fri 05:19:10 PM 35.3177 -85.4072 309° West 463 533 33,400 1,333 Climbing FlightAware ADS-B (KMDQ)
Fri 05:19:57 PM 35.3802 -85.5030 309° West 459 528 34,000 434 Climbing FlightAware ADS-B (KMDQ)
Fri 05:20:33 PM 35.4399 -85.5951 308° West 458 527 34,000  Level FlightAware ADS-B (KMDQ)
Fri 05:21:16 PM 35.4989 -85.6855 309° West 455 524 34,000  Level FlightAware ADS-B (KMDQ)
Fri 05:21:56 PM 35.5499 -85.7641 308° West 454 522 34,000  Level FlightAware ADS-B (KMDQ)
Fri 05:22:37 PM 35.6038 -85.8476 308° West 455 524 34,000  Level FlightAware ADS-B (KMDQ)
Fri 05:23:16 PM 35.6548 -85.9269 308° West 454 522 34,000  Level FlightAware ADS-B (KMDQ)
Fri 05:23:57 PM 35.7079 -86.0096 308° West 450 518 34,000  Level FlightAware ADS-B (KMDQ)
Fri 05:24:35 PM 35.7575 -86.0870 308° West 446 513 34,000  Level FlightAware ADS-B (KMDQ)
Fri 05:25:14 PM 35.8064 -86.1634 308° West 442 509 34,000  Level FlightAware ADS-B (KMDQ)
Fri 05:26:16 PM 35.8799 -86.2787 308° West 439 505 34,000  Level FlightAware ADS-B (KMDQ)
Fri 05:26:56 PM 35.9267 -86.3524 308° West 438 504 34,000  Level FlightAware ADS-B (KMDQ)
Fri 05:27:31 PM 35.9696 -86.4200 308° West 435 501 34,000  Level FlightAware ADS-B (KMDQ)
Fri 05:28:16 PM 36.0327 -86.5196 308° West 433 498 34,000  Level FlightAware ADS-B (KMDQ)
Fri 05:28:55 PM 36.0816 -86.5969 308° West 435 501 34,000  Level FlightAware ADS-B (KMDQ)
Fri 05:29:36 PM 36.1290 -86.6710 310° West 438 504 34,000  Level FlightAware ADS-B (KMDQ)
Fri 05:30:13 PM 36.1837 -86.7463 313° West 443 510 34,000  Level FlightAware ADS-B (KMDQ)
Fri 05:30:54 PM 36.2408 -86.8218 313° West 445 512 34,000  Level FlightAware ADS-B (KMDQ)
Fri 05:31:25 PM 36.2687 -86.8586 313° West 447 514 34,000  Level FlightAware ADS-B (KIXA)
Fri 05:32:48 PM 36.3916 -87.0214 313° West 444 511 34,000  Level FlightAware ADS-B (KIXA)
Fri 05:33:54 PM 36.4728 -87.1286 313° West 445 512 34,000  Level Kansas City Center
Fri 05:34:55 PM 36.5475 -87.2292 313° West 440 506 34,000  Level Kansas City Center
Fri 05:35:58 PM 36.6450 -87.3606 313° West 435 501 34,000  Level Kansas City Center
Fri 05:36:59 PM 36.7269 -87.4700 313° West 435 501 34,000  Level Kansas City Center
Fri 05:38:01 PM 36.8081 -87.5797 313° West 434 499 34,000  Level Kansas City Center
Fri 05:39:04 PM 36.8906 -87.6900 313° West 434 499 34,000  Level Kansas City Center
Fri 05:40:12 PM 36.9933 -87.8306 312° West 433 498 34,000  Level Memphis Center
Fri 05:41:14 PM 37.0744 -87.9417 312° West 433 498 34,000  Level Memphis Center
Fri 05:42:16 PM 37.1544 -88.0508 313° West 425 489 34,000  Level Memphis Center
Fri 05:43:18 PM 37.2242 -88.1472 312° West 419 482 34,000  Level Memphis Center
Fri 05:44:20 PM 37.3169 -88.2744 313° West 416 479 34,000  Level Memphis Center
Fri 05:45:22 PM 37.3925 -88.3792 312° West 408 470 34,000  Level Memphis Center
Fri 05:46:24 PM 37.4681 -88.4853 312° West 408 470 34,000  Level Memphis Center
Fri 05:47:26 PM 37.5444 -88.5919 312° West 409 471 34,000  Level Memphis Center
Fri 05:48:28 PM 37.6206 -88.6978 312° West 409 471 34,000  Level Memphis Center
Fri 05:49:25 PM 37.6997 -88.8106 312° West 419 482 34,000  Level Kansas City Center
Fri 05:50:26 PM 37.7775 -88.9175 313° West 420 483 34,000  Level Kansas City Center
Fri 05:51:27 PM 37.8589 -89.0322 312° West 420 483 34,000  Level Kansas City Center
Fri 05:52:31 PM 37.9356 -89.1436 311° West 420 483 34,000  Level Kansas City Center
Fri 05:53:34 PM 38.0128 -89.2528 312° West 420 483 34,000  Level Kansas City Center
Fri 05:54:35 PM 38.1058 -89.3858 312° West 420 483 34,000  Level Kansas City Center
Fri 05:55:36 PM 38.1828 -89.4950 312° West 419 482 34,000  Level Kansas City Center
Fri 05:56:40 PM 38.2592 -89.6050 312° West 419 482 34,000  Level Kansas City Center
Fri 05:57:41 PM 38.3350 -89.7156 311° West 417 480 34,000  Level Kansas City Center
Fri 05:58:42 PM 38.4092 -89.8219 312° West 417 480 34,000  Level Kansas City Center
Fri 05:59:48 PM 38.5017 -89.9550 312° West 417 480 34,000  Level Kansas City Center
Fri 06:00:49 PM 38.5794 -90.0689 311° West 417 480 34,000  Level Kansas City Center
Fri 06:01:52 PM 38.6561 -90.1803 311° West 417 480 34,000  Level Kansas City Center
Fri 06:02:53 PM 38.7322 -90.2908 311° West 417 480 34,000  Level Kansas City Center
Fri 06:03:57 PM 38.8217 -90.4247 311° West 417 480 34,000  Level Kansas City Center
Fri 06:04:58 PM 38.9011 -90.5367 312° West 418 481 34,000  Level Kansas City Center
Fri 06:05:59 PM 38.9872 -90.6303 320° Northwest 439 505 34,000  Level Kansas City Center
Fri 06:08:06 PM 39.1611 -90.8347 315° West 426 490 34,000  Level Kansas City Center
Fri 06:09:07 PM 39.2653 -90.9583 317° Northwest 425 489 34,000  Level Kansas City Center
Fri 06:10:07 PM 39.3522 -91.0606 318° Northwest 425 489 34,000  Level Kansas City Center
Fri 06:11:11 PM 39.4392 -91.1636 318° Northwest 425 489 34,000  Level Kansas City Center
Fri 06:12:14 PM 39.5244 -91.2667 317° Northwest 424 488 34,000  Level Kansas City Center
Fri 06:13:15 PM 39.6117 -91.3722 317° Northwest 423 487 34,000  Level Kansas City Center
Fri 06:14:18 PM 39.6972 -91.4750 317° Northwest 423 487 34,000  Level Kansas City Center
Fri 06:15:19 PM 39.8011 -91.5994 317° Northwest 423 487 34,000  Level Kansas City Center
Fri 06:16:22 PM 39.8861 -91.7036 317° Northwest 424 488 34,000  Level Kansas City Center
Fri 06:17:24 PM 39.9739 -91.8083 318° Northwest 424 488 34,000  Level Kansas City Center
Fri 06:18:24 PM 40.0600 -91.9136 317° Northwest 425 489 34,000  Level Kansas City Center
Fri 06:24:31 PM 40.5846 -92.5616 316° Northwest 430 495 34,000  Level FlightAware ADS-B
Fri 06:26:19 PM 40.7588 -92.7801 316° Northwest 429 494 34,000  Level FlightAware ADS-B
Fri 06:27:19 PM 40.8387 -92.8810 316° Northwest 430 495 34,000  Level FlightAware ADS-B
Fri 06:30:04 PM 41.0826 -93.1912 316° Northwest 431 496 34,000  Level FlightAware ADS-B
Fri 06:30:35 PM 41.1248 -93.2451 316° Northwest 432 497 34,000  Level FlightAware ADS-B
Fri 06:36:08 PM 41.6010 -93.8688 315° West 434 499 34,000  Level FlightAware ADS-B
Fri 06:36:43 PM 41.6503 -93.9355 315° West 433 498 34,000  Level FlightAware ADS-B
Fri 06:37:29 PM 41.7066 -94.0117 315° West 432 497 34,000  Level FlightAware ADS-B
Fri 06:38:20 PM 41.7864 -94.1203 314° West 433 498 34,000  Level FlightAware ADS-B
Fri 06:38:59 PM 41.8412 -94.1951 314° West 432 497 34,000  Level FlightAware ADS-B
Fri 06:39:44 PM 41.9041 -94.2811 314° West 432 497 34,000  Level FlightAware ADS-B
Fri 06:40:14 PM 41.9391 -94.3293 314° West 432 497 34,000  Level FlightAware ADS-B
Fri 06:40:44 PM 41.9808 -94.3866 314° West 431 496 34,000  Level FlightAware ADS-B
Fri 06:41:26 PM 42.0456 -94.4759 314° West 432 497 34,000  Level FlightAware ADS-B
Fri 06:42:15 PM 42.1133 -94.5696 314° West 433 498 34,000  Level FlightAware ADS-B
Fri 06:43:00 PM 42.1719 -94.6509 314° West 433 498 34,000  Level FlightAware ADS-B
Fri 06:43:54 PM 42.2511 -94.7610 314° West 434 499 34,000  Level FlightAware ADS-B
Fri 06:44:45 PM 42.3233 -94.8618 314° West 434 499 34,000  Level FlightAware ADS-B
Fri 06:46:02 PM 42.4250 -95.0036 314° West 433 498 34,000 129 Level Minneapolis Center
Fri 06:47:04 PM 42.5072 -95.1206 314° West 433 498 34,300 919 Climbing Minneapolis Center
Fri 06:48:06 PM 42.5928 -95.2417 314° West 433 498 35,900 823 Climbing Minneapolis Center
Fri 06:49:08 PM 42.6725 -95.3544 314° West 433 498 36,000 48 Climbing Minneapolis Center
Fri 06:50:10 PM 42.7517 -95.4686 313° West 423 487 36,000  Level Minneapolis Center
Fri 06:51:12 PM 42.8331 -95.5847 314° West 422 486 36,000  Level Minneapolis Center
Fri 06:52:14 PM 42.9300 -95.7233 314° West 422 486 36,000  Level Minneapolis Center
Fri 06:53:16 PM 43.0108 -95.8411 313° West 422 486 36,000  Level Minneapolis Center
Fri 06:54:18 PM 43.0917 -95.9575 314° West 423 487 36,000  Level Minneapolis Center
Fri 06:55:20 PM 43.1728 -96.0758 313° West 423 487 36,000  Level Minneapolis Center
Fri 06:56:22 PM 43.2536 -96.1950 313° West 424 488 36,000  Level Minneapolis Center
Fri 06:57:24 PM 43.3500 -96.3375 313° West 426 490 36,000  Level Minneapolis Center
Fri 06:58:26 PM 43.4303 -96.4561 313° West 425 489 36,000  Level Minneapolis Center
Fri 06:59:29 PM 43.5119 -96.5747 314° West 425 489 36,000  Level Minneapolis Center
Fri 07:00:31 PM 43.5919 -96.6942 313° West 425 489 36,000  Level Minneapolis Center
Fri 07:01:33 PM 43.6783 -96.8075 317° Northwest 426 490 36,000  Level Minneapolis Center
Fri 07:02:35 PM 43.7978 -96.9092 328° Northwest 431 496 36,000  Level Minneapolis Center
Fri 07:03:37 PM 43.9006 -96.9989 328° Northwest 434 499 36,000  Level Minneapolis Center
Fri 07:04:39 PM 44.0022 -97.0881 328° Northwest 435 501 36,000  Level Minneapolis Center
Fri 07:05:41 PM 44.1036 -97.1781 327° Northwest 434 499 36,000  Level Minneapolis Center
Fri 07:06:43 PM 44.2050 -97.2700 327° Northwest 434 499 36,000  Level Minneapolis Center
Fri 07:07:45 PM 44.3292 -97.3764 329° Northwest 436 502 36,000  Level Minneapolis Center
Fri 07:08:47 PM 44.4350 -97.4603 330° Northwest 437 503 36,000  Level Minneapolis Center
Fri 07:09:49 PM 44.5506 -97.5214 339° North 443 510 36,000  Level Minneapolis Center
Fri 07:10:51 PM 44.6656 -97.5844 339° North 443 510 36,000  Level Minneapolis Center
Fri 07:11:53 PM 44.7800 -97.6475 339° North 443 510 36,000  Level Minneapolis Center
Fri 07:12:55 PM 44.8953 -97.7097 339° North 444 511 36,000  Level Minneapolis Center
Fri 07:13:57 PM 45.0242 -97.8056 332° Northwest 442 509 36,000  Level Minneapolis Center
Fri 07:15:00 PM 45.1186 -97.9103 322° Northwest 436 502 36,000  Level Minneapolis Center
Fri 07:16:02 PM 45.2128 -98.0128 323° Northwest 432 497 36,000  Level Minneapolis Center
Fri 07:17:04 PM 45.3275 -98.0756 339° North 438 504 36,000  Level Minneapolis Center
Fri 07:18:06 PM 45.4431 -98.1375 339° North 445 512 36,000  Level Minneapolis Center
Fri 07:19:08 PM 45.5814 -98.2094 340° North 444 511 36,000  Level Minneapolis Center
Fri 07:20:10 PM 45.6964 -98.2711 339° North 444 511 36,000  Level Minneapolis Center
Fri 07:21:12 PM 45.8119 -98.3311 340° North 444 511 36,000  Level Minneapolis Center
Fri 07:22:13 PM 45.9283 -98.3942 339° North 444 511 36,000  Level Minneapolis Center
Fri 07:23:15 PM 46.0281 -98.4892 327° Northwest 442 509 36,000  Level Minneapolis Center
Fri 07:24:17 PM 46.1133 -98.6094 316° Northwest 432 497 36,000 -48 Level Minneapolis Center
Fri 07:25:19 PM 46.1975 -98.7306 315° West 431 496 35,900  Descending Minneapolis Center
Fri 07:26:21 PM 46.2986 -98.8733 316° Northwest 429 494 36,000 48 Climbing Minneapolis Center
Fri 07:27:23 PM 46.3831 -98.9947 315° West 429 494 36,000  Level Minneapolis Center
Fri 07:28:25 PM 46.4675 -99.1169 315° West 429 494 36,000 -48 Level Minneapolis Center
Fri 07:29:27 PM 46.5525 -99.2400 315° West 429 494 35,900  Descending Minneapolis Center
Fri 07:30:29 PM 46.6375 -99.3647 315° West 430 495 36,000 48 Climbing Minneapolis Center
Fri 07:31:31 PM 46.7214 -99.4864 315° West 428 493 36,000  Level Minneapolis Center
Fri 07:32:33 PM 46.8061 -99.6117 315° West 428 493 36,000  Level Minneapolis Center
Fri 07:33:35 PM 46.9067 -99.7597 315° West 429 494 36,000  Level Minneapolis Center
Fri 07:34:37 PM 46.9906 -99.8847 315° West 429 494 36,000  Level Minneapolis Center
Fri 07:35:39 PM 47.0744 -100.0094 315° West 429 494 36,000 -48 Level Minneapolis Center
Fri 07:36:41 PM 47.1583 -100.1369 314° West 429 494 35,900  Descending Minneapolis Center
Fri 07:37:43 PM 47.2419 -100.2617 315° West 429 494 36,000 48 Climbing Minneapolis Center
Fri 07:38:45 PM 47.3247 -100.3878 314° West 430 495 36,000  Level Minneapolis Center
Fri 07:39:46 PM 47.4256 -100.5414 314° West 432 497 36,000  Level Minneapolis Center
Fri 07:40:48 PM 47.5100 -100.6703 314° West 433 498 36,000  Level Minneapolis Center
Fri 07:41:50 PM 47.5964 -100.7978 315° West 436 502 36,000  Level Minneapolis Center
Fri 07:42:52 PM 47.6758 -100.9250 313° West 431 496 36,000  Level Minneapolis Center
Fri 07:43:54 PM 47.7586 -101.0600 312° West 429 494 36,000 -48 Level Minneapolis Center
Fri 07:44:56 PM 47.8400 -101.1883 313° West 430 495 35,900  Descending Minneapolis Center
Fri 07:45:58 PM 47.9219 -101.3178 313° West 430 495 36,000  Climbing Minneapolis Center
Fri 07:47:00 PM 48.0039 -101.4494 313° West 430 495 35,900  Descending Minneapolis Center
Fri 07:48:01 PM 48.1031 -101.6058 314° West 431 496 36,000 49 Climbing Minneapolis Center
Fri 07:49:03 PM 48.1844 -101.7381 313° West 431 496 36,000 -48 Level Minneapolis Center
Fri 07:50:05 PM 48.2667 -101.8700 313° West 432 497 35,900  Descending Minneapolis Center
Fri 07:51:07 PM 48.3519 -102.0047 314° West 438 504 36,000  Climbing Minneapolis Center
Fri 07:52:09 PM 48.4369 -102.1419 313° West 444 511 35,900 -48 Descending Minneapolis Center
Fri 07:53:11 PM 48.5364 -102.3025 313° West 444 511 35,900 48 Level Minneapolis Center
Fri 07:54:13 PM 48.6178 -102.4367 313° West 444 511 36,000 48 Climbing Minneapolis Center
Fri 07:55:15 PM 48.6983 -102.5711 312° West 441 507 36,000 -48 Level Minneapolis Center
Fri 07:56:17 PM 48.7769 -102.7000 313° West 432 497 35,900 -49 Descending Minneapolis Center
Fri 07:57:18 PM 48.8569 -102.8336 312° West 430 495 35,900  Level Minneapolis Center
Fri 07:58:20 PM 48.9383 -102.9711 312° West 432 497 35,900 49 Level Minneapolis Center
Fri 07:59:21 PM 49.0167 -103.1333 306° West 430 495 36,000 50 Climbing Winnipeg Center
Fri 08:00:21 PM 49.1000 -103.2833 310° West 430 495 36,000  Level Winnipeg Center
Fri 08:01:21 PM 49.1833 -103.4000 318° Northwest 430 495 36,000  Level Winnipeg Center
Fri 08:02:21 PM 49.2500 -103.5500 304° West 440 506 36,000  Level Winnipeg Center
Fri 08:03:21 PM 49.3333 -103.7000 310° West 440 506 36,000  Level Winnipeg Center
Fri 08:04:21 PM 49.4167 -103.8333 314° West 440 506 36,000  Level Winnipeg Center
Fri 08:05:21 PM 49.5000 -103.9833 311° West 440 506 36,000  Level Winnipeg Center
Fri 08:06:21 PM 49.5667 -104.1000 311° West 440 506 36,000  Level Winnipeg Center
Fri 08:07:21 PM 49.6667 -104.2667 313° West 440 506 36,000  Level Winnipeg Center
Fri 08:08:21 PM 49.7333 -104.4000 308° West 440 506 36,000  Level Winnipeg Center
Fri 08:09:21 PM 49.8167 -104.5500 311° West 440 506 36,000  Level Winnipeg Center
Fri 08:16:40 PM 50.4000 -105.5667 310° West 420 483 36,000  Level Edmonton Center
Fri 08:17:40 PM 50.4667 -105.7000 308° West 430 495 36,000  Level Edmonton Center
Fri 08:18:00 PM 50.4962 -105.7695 311° West  Level FlightAware Approximate
Fri 08:18:40 PM 50.5500 -105.8667 308° West 430 495 36,000  Level Edmonton Center
Fri 08:19:00 PM 50.5740 -105.9126 311° West  Level FlightAware Approximate
Fri 08:19:40 PM 50.6333 -106.0000 315° West 430 495 36,000  Level Edmonton Center
Fri 08:20:00 PM 50.6517 -106.0561 311° West  Level FlightAware Approximate
Fri 08:20:40 PM 50.6833 -106.1333 301° West 430 495 36,000  Level Edmonton Center
Fri 08:21:00 PM 50.7292 -106.2001 310° West  Level FlightAware Approximate
Fri 08:21:40 PM 50.7667 -106.3000 308° West 430 495 36,000  Level Edmonton Center
Fri 08:22:40 PM 50.8500 -106.4333 315° West 430 495 36,000  Level Edmonton Center
Fri 08:23:40 PM 50.9333 -106.6000 308° West 430 495 36,000  Level Edmonton Center
Fri 08:24:40 PM 51.0000 -106.7333 308° West 430 495 36,000  Level Edmonton Center
Fri 08:25:40 PM 51.0833 -106.9000 309° West 420 483 36,000  Level Edmonton Center
Fri 08:26:40 PM 51.1500 -107.0333 309° West 420 483 36,000  Level Edmonton Center
Fri 08:27:40 PM 51.2333 -107.1667 315° West 420 483 36,000  Level Edmonton Center
Fri 08:28:40 PM 51.3167 -107.3333 309° West 420 483 36,000  Level Edmonton Center
Fri 08:29:40 PM 51.3833 -107.4833 305° West 420 483 36,000  Level Edmonton Center
Fri 08:30:40 PM 51.4667 -107.6167 315° West 420 483 36,000  Level Edmonton Center
Fri 08:31:40 PM 51.5167 -107.7667 298° West 420 483 36,000  Level Edmonton Center
Fri 08:32:40 PM 51.6000 -107.9333 309° West 420 483 36,000  Level Edmonton Center
Fri 08:33:40 PM 51.6667 -108.0667 309° West 420 483 36,000  Level Edmonton Center
Fri 08:34:40 PM 51.7500 -108.2167 312° West 410 472 36,000  Level Edmonton Center
Fri 08:35:40 PM 51.8167 -108.3833 303° West 420 483 36,000  Level Edmonton Center
Fri 08:36:21 PM 51.8667 -108.5000 305° West 420 483 36,000  Level Winnipeg Center
Fri 08:38:40 PM 52.0333 -108.8167 311° West 420 483 36,000  Level Edmonton Center
Fri 08:39:21 PM 52.0833 -108.9333 305° West 420 483 36,000  Level Winnipeg Center
Fri 08:40:21 PM 52.1667 -109.1000 309° West 420 483 36,000  Level Winnipeg Center
Fri 08:41:21 PM 52.2333 -109.2500 306° West 420 483 36,000  Level Winnipeg Center
Fri 08:42:21 PM 52.3000 -109.4167 303° West 420 483 36,000  Level Winnipeg Center
Fri 08:43:21 PM 52.3667 -109.5667 306° West 420 483 36,000  Level Winnipeg Center
Fri 08:44:21 PM 52.4500 -109.7000 316° Northwest 420 483 36,000  Level Winnipeg Center
Fri 08:45:21 PM 52.5167 -109.8667 303° West 420 483 36,000  Level Winnipeg Center
Fri 08:46:21 PM 52.5833 -110.0167 306° West 420 483 36,000  Level Winnipeg Center
Fri 08:47:21 PM 52.6500 -110.1833 303° West 420 483 36,000  Level Winnipeg Center
Fri 08:48:21 PM 52.7333 -110.3500 310° West 420 483 36,000  Level Winnipeg Center
Fri 08:49:21 PM 52.8000 -110.4833 310° West 420 483 36,000  Level Winnipeg Center
Fri 08:50:21 PM 52.8667 -110.6333 306° West 420 483 36,000 400 Level Winnipeg Center
Fri 08:51:21 PM 52.9333 -110.8000 304° West 430 495 36,800 700 Climbing Winnipeg Center
Fri 08:52:21 PM 53.0000 -110.9667 304° West 430 495 37,400 600 Climbing Winnipeg Center
Fri 08:53:21 PM 53.0667 -111.1333 304° West 440 506 38,000 300 Climbing Winnipeg Center
Fri 08:54:21 PM 53.1333 -111.3000 304° West 430 495 38,000  Level Winnipeg Center
Fri 08:59:58 PM 53.2003 -111.3372 305° West 424 488 38,000  Level FlightAware ADS-B
Fri 09:03:43 PM 53.7965 -112.7627 305° West 429 494 38,000  Level FlightAware ADS-B
Fri 09:04:15 PM 53.8341 -112.8554 304° West 428 493 38,000  Level FlightAware ADS-B
Fri 09:05:00 PM 53.8839 -112.9788 304° West 427 491 38,000  Level FlightAware ADS-B
Fri 09:05:45 PM 53.9343 -113.1042 304° West 426 490 38,000  Level FlightAware ADS-B
Fri 09:06:24 PM 53.9774 -113.2117 304° West 425 489 38,000  Level FlightAware ADS-B (CYEG)
Fri 09:07:00 PM 54.0163 -113.3099 304° West 426 490 38,000  Level FlightAware ADS-B
Fri 09:07:36 PM 54.0558 -113.4090 304° West 425 489 38,000  Level FlightAware ADS-B (CYEG)
Fri 09:08:15 PM 54.0993 -113.5190 304° West 422 486 38,000  Level FlightAware ADS-B
Fri 09:09:00 PM 54.1476 -113.6418 304° West 423 487 38,000  Level FlightAware ADS-B
Fri 09:09:44 PM 54.1943 -113.7613 304° West 423 487 38,000  Level FlightAware ADS-B
Fri 09:10:14 PM 54.2242 -113.8380 304° West 422 486 38,000  Level FlightAware ADS-B
Fri 09:11:15 PM 54.2915 -114.0111 304° West 424 488 38,000  Level FlightAware ADS-B
Fri 09:12:01 PM 54.3362 -114.1271 303° West 422 486 38,000  Level FlightAware ADS-B
Fri 09:12:45 PM 54.3873 -114.2602 303° West 421 484 38,000  Level FlightAware ADS-B
Fri 09:13:15 PM 54.4214 -114.3495 303° West 421 484 38,000  Level FlightAware ADS-B
Fri 09:13:45 PM 54.4523 -114.4308 303° West 420 483 38,000  Level FlightAware ADS-B
Fri 09:14:16 PM 54.4847 -114.5162 303° West 420 483 38,000  Level FlightAware ADS-B
Fri 09:15:00 PM 54.5303 -114.6368 303° West 420 483 38,000  Level FlightAware ADS-B
Fri 09:15:45 PM 54.5779 -114.7633 303° West 419 482 38,000  Level FlightAware ADS-B
Fri 09:16:15 PM 54.6083 -114.8447 303° West 419 482 38,000  Level FlightAware ADS-B
Fri 09:16:46 PM 54.6438 -114.9397 303° West 418 481 38,000  Level FlightAware ADS-B
Fri 09:17:16 PM 54.6742 -115.0216 303° West 419 482 38,000  Level FlightAware ADS-B
Fri 09:17:46 PM 54.7040 -115.1020 303° West 419 482 38,000  Level FlightAware ADS-B
Fri 09:18:16 PM 54.7378 -115.1933 302° West 418 481 38,000  Level FlightAware ADS-B
Fri 09:18:47 PM 54.7689 -115.2780 303° West 417 480 38,000  Level FlightAware ADS-B
Fri 09:19:31 PM 54.8130 -115.3984 302° West 417 480 38,000  Level FlightAware ADS-B
Fri 09:20:01 PM 54.8445 -115.4846 302° West 418 481 38,000  Level FlightAware ADS-B
Fri 09:20:31 PM 54.8768 -115.5735 302° West 418 481 38,000  Level FlightAware ADS-B
Fri 09:21:02 PM 54.9068 -115.6563 302° West 419 482 38,000  Level FlightAware ADS-B
Fri 09:21:40 PM 54.9167 -115.7833 302° West 410 472 38,000  Level Edmonton Center
Fri 09:22:40 PM 54.9833 -115.9833 300° West 410 472 38,000  Level Edmonton Center
Fri 09:23:40 PM 55.0333 -116.1500 298° West 420 483 38,000  Level Edmonton Center
Fri 09:24:40 PM 55.1167 -116.3167 311° West 420 483 38,000  Level Edmonton Center
Fri 09:25:40 PM 55.1667 -116.4833 298° West 420 483 38,000  Level Edmonton Center
Fri 09:26:40 PM 55.2333 -116.6500 305° West 420 483 38,000  Level Edmonton Center
Fri 09:27:40 PM 55.2833 -116.8500 294° West 420 483 38,000  Level Edmonton Center
Fri 09:28:40 PM 55.3500 -117.0167 305° West 420 483 38,000  Level Edmonton Center
Fri 09:29:40 PM 55.4167 -117.2000 303° West 420 483 38,000  Level Edmonton Center
Fri 09:30:40 PM 55.4667 -117.3667 298° West 420 483 38,000  Level Edmonton Center
Fri 09:31:40 PM 55.5333 -117.5667 301° West 420 483 38,000  Level Edmonton Center
Fri 09:32:40 PM 55.5833 -117.7333 298° West 410 472 38,000  Level Edmonton Center
Fri 09:33:40 PM 55.6333 -117.9000 298° West 410 472 38,000  Level Edmonton Center
Fri 09:34:40 PM 55.7000 -118.0833 303° West 410 472 38,000  Level Edmonton Center
Fri 09:35:40 PM 55.7667 -118.2500 305° West 410 472 38,000  Level Edmonton Center
Fri 09:36:40 PM 55.8167 -118.4500 294° West 410 472 38,000  Level Edmonton Center
Fri 09:37:40 PM 55.8833 -118.6333 303° West 410 472 38,000  Level Edmonton Center
Fri 09:38:40 PM 55.9333 -118.8000 298° West 410 472 38,000  Level Edmonton Center
Fri 09:39:40 PM 56.0000 -118.9833 303° West 410 472 38,000  Level Edmonton Center
Fri 09:40:40 PM 56.0500 -119.1667 296° West 410 472 38,000  Level Edmonton Center
Fri 09:41:40 PM 56.1000 -119.3333 298° West 420 483 38,000  Level Edmonton Center
Fri 09:42:40 PM 56.1667 -119.5500 299° West 420 483 38,000  Level Edmonton Center
Fri 09:43:40 PM 56.2167 -119.7167 298° West 420 483 38,000  Level Edmonton Center
Fri 09:44:40 PM 56.2833 -119.9000 303° West 420 483 38,000  Level Edmonton Center
Fri 09:45:40 PM 56.3333 -120.0833 296° West 420 483 38,000  Level Edmonton Center
Fri 09:46:40 PM 56.3833 -120.2500 299° West 420 483 38,000  Level Edmonton Center
Fri 09:47:40 PM 56.4500 -120.4667 299° West 420 483 38,000  Level Edmonton Center
Fri 09:48:40 PM 56.5000 -120.6500 296° West 420 483 38,000  Level Edmonton Center
Fri 09:49:40 PM 56.5500 -120.8333 296° West 420 483 38,000  Level Edmonton Center
Fri 09:50:40 PM 56.6000 -121.0167 296° West 420 483 38,000  Level Edmonton Center
Fri 09:51:40 PM 56.6667 -121.2167 301° West 420 483 38,000  Level Edmonton Center
Fri 09:52:40 PM 56.7167 -121.4167 295° West 420 483 38,000  Level Edmonton Center
Fri 09:53:40 PM 56.7667 -121.5833 299° West 420 483 38,000  Level Edmonton Center
Fri 09:54:40 PM 56.8333 -121.7833 301° West 420 483 38,000  Level Edmonton Center
Fri 09:55:40 PM 56.8833 -122.0000 293° West 420 483 38,000  Level Edmonton Center
Fri 09:56:40 PM 56.9333 -122.1667 299° West 420 483 38,000  Level Edmonton Center
Fri 09:57:40 PM 56.9833 -122.3667 295° West 420 483 38,000  Level Edmonton Center
Fri 09:58:40 PM 57.0333 -122.5667 295° West 420 483 38,000  Level Edmonton Center
Fri 09:59:40 PM 57.0833 -122.7667 295° West 420 483 38,000  Level Edmonton Center
Fri 10:00:40 PM 57.1500 -122.9500 304° West 420 483 38,000  Level Edmonton Center
Fri 10:01:40 PM 57.1833 -123.1333 289° West 420 483 38,000  Level Edmonton Center
Fri 10:02:40 PM 57.2500 -123.3667 298° West 420 483 38,000  Level Edmonton Center
Fri 10:03:40 PM 57.3000 -123.5500 297° West 420 483 38,000  Level Edmonton Center
Fri 10:04:40 PM 57.3500 -123.7500 295° West 420 483 38,000  Level Edmonton Center
Fri 10:05:40 PM 57.4000 -123.9333 297° West 430 495 38,000  Level Edmonton Center
Fri 10:06:40 PM 57.4333 -124.1167 289° West 420 483 38,000  Level Edmonton Center
Fri 10:07:40 PM 57.5000 -124.3333 300° West 420 483 38,000  Level Edmonton Center
Fri 10:08:40 PM 57.5500 -124.5333 295° West 420 483 38,000  Level Edmonton Center
Fri 10:09:40 PM 57.6000 -124.7333 295° West 420 483 38,000  Level Edmonton Center
Fri 10:10:40 PM 57.6333 -124.9500 286° West 420 483 38,000  Level Edmonton Center
Fri 10:11:40 PM 57.7000 -125.1500 302° West 430 495 38,000  Level Edmonton Center
Fri 10:52:04 PM 59.4333 -133.8500 286° West 480 552 38,000  Level Anchorage Center
Fri 10:53:00 PM 59.4424 -133.9072 287° West  Level FlightAware Approximate
Fri 10:53:04 PM 59.4667 -134.0833 286° West 450 518 38,000  Level Anchorage Center
Fri 10:54:00 PM 59.4762 -134.1302 287° West  Level FlightAware Approximate
Fri 10:54:04 PM 59.5000 -134.3000 287° West 430 495 38,000  Level Anchorage Center
Fri 10:55:00 PM 59.5097 -134.3537 287° West  Level FlightAware Approximate
Fri 10:55:04 PM 59.5333 -134.5333 286° West 440 506 38,000  Level Anchorage Center
Fri 10:56:00 PM 59.5428 -134.5777 286° West  Level FlightAware Approximate
Fri 10:56:04 PM 59.5667 -134.7833 285° West 450 518 38,000  Level Anchorage Center
Fri 10:57:00 PM 59.5755 -134.8020 286° West  Level FlightAware Approximate
Fri 10:57:04 PM 59.6167 -135.0000 295° West 450 518 38,000  Level Anchorage Center
Fri 10:58:05 PM 59.6500 -135.2500 285° West 450 518 38,000  Level Anchorage Center
Fri 10:59:05 PM 59.6833 -135.4833 286° West 450 518 38,000  Level Anchorage Center
Fri 11:00:05 PM 59.7000 -135.7167 278° West 450 518 38,000  Level Anchorage Center
Fri 11:01:05 PM 59.7333 -135.9667 285° West 440 506 38,000  Level Anchorage Center
Fri 11:02:05 PM 59.7667 -136.2000 286° West 450 518 38,000  Level Anchorage Center
Fri 11:03:05 PM 59.8000 -136.4500 285° West 450 518 38,000  Level Anchorage Center
Fri 11:04:05 PM 59.8333 -136.6833 286° West 460 529 38,000  Level Anchorage Center
Fri 11:05:06 PM 59.8667 -136.9333 285° West 450 518 38,000  Level Anchorage Center
Fri 11:06:06 PM 59.9000 -137.1667 286° West 450 518 38,000  Level Anchorage Center
Fri 11:07:06 PM 59.9167 -137.4167 278° West 450 518 38,000  Level Anchorage Center
Fri 11:08:06 PM 59.9500 -137.6667 285° West 450 518 38,000  Level Anchorage Center
Fri 11:09:06 PM 59.9833 -137.9000 286° West 450 518 38,000  Level Anchorage Center
Fri 11:10:06 PM 60.0167 -138.1500 285° West 460 529 38,000  Level Anchorage Center
Fri 11:11:06 PM 60.0333 -138.4000 278° West 450 518 38,000  Level Anchorage Center
Fri 11:12:06 PM 60.0667 -138.6500 285° West 450 518 38,000  Level Anchorage Center
Fri 11:13:06 PM 60.0833 -138.9000 278° West 450 518 38,000  Level Anchorage Center
Fri 11:14:06 PM 60.1167 -139.1500 285° West 450 518 38,000  Level Anchorage Center
Fri 11:15:07 PM 60.1500 -139.4000 285° West 460 529 38,000  Level Anchorage Center
Fri 11:16:07 PM 60.1667 -139.6500 278° West 460 529 38,000  Level Anchorage Center
Fri 11:17:07 PM 60.2000 -139.9000 285° West 460 529 38,000  Level Anchorage Center
Fri 11:18:07 PM 60.2167 -140.1500 278° West 460 529 38,000  Level Anchorage Center
Fri 11:19:07 PM 60.2500 -140.4000 285° West 460 529 38,000  Level Anchorage Center
Fri 11:20:07 PM 60.2667 -140.6500 278° West 460 529 38,000  Level Anchorage Center
Fri 11:21:07 PM 60.3000 -140.9167 284° West 460 529 38,000  Level Anchorage Center
Fri 11:22:07 PM 60.3167 -141.1667 278° West 460 529 38,000  Level Anchorage Center
Fri 11:23:08 PM 60.3333 -141.4167 278° West 460 529 38,000  Level Anchorage Center
Fri 11:24:08 PM 60.3667 -141.6833 284° West 460 529 38,000  Level Anchorage Center
Fri 11:25:08 PM 60.3833 -141.9333 278° West 460 529 38,000  Level Anchorage Center
Fri 11:26:08 PM 60.4000 -142.2000 277° West 460 529 38,000  Level Anchorage Center
Fri 11:27:08 PM 60.4167 -142.4500 278° West 460 529 38,000  Level Anchorage Center
Fri 11:28:08 PM 60.4500 -142.7000 285° West 460 529 38,000  Level Anchorage Center
Fri 11:29:08 PM 60.4667 -142.9667 277° West 460 529 38,000  Level Anchorage Center
Fri 11:30:09 PM 60.4833 -143.2000 278° West 460 529 38,000  Level Anchorage Center
Fri 11:31:09 PM 60.5000 -143.4667 277° West 460 529 38,000  Level Anchorage Center
Fri 11:32:09 PM 60.5167 -143.7167 278° West 460 529 38,000  Level Anchorage Center
Fri 11:38:19 PM 60.6305 -145.3417 277° West 441 507 38,000  Level FlightAware ADS-B (PAEN / ENA)
Fri 11:38:52 PM 60.6382 -145.4761 277° West 440 506 38,000  Level FlightAware ADS-B (PAEN / ENA)
Fri 11:39:37 PM 60.6482 -145.6574 276° West 441 507 38,000  Level FlightAware ADS-B (PAEN / ENA)
Fri 11:40:07 PM 60.6552 -145.7844 276° West 441 507 38,000  Level FlightAware ADS-B (PAEN / ENA)
Fri 11:40:37 PM 60.6618 -145.9091 276° West 441 507 38,000 -400 Level FlightAware ADS-B (PAEN / ENA)
Fri 11:41:07 PM 60.6683 -146.0327 276° West 442 509 37,600 -1,500 Descending FlightAware ADS-B (PAEN / ENA)
Fri 11:41:37 PM 60.6732 -146.1568 274° West 451 519 36,500 -2,361 Descending FlightAware ADS-B (PAEN / ENA)
Fri 11:42:08 PM 60.6778 -146.2831 274° West 455 524 35,200 -2,557 Descending FlightAware ADS-B (PAEN / ENA)
Fri 11:42:38 PM 60.6826 -146.4179 274° West 453 521 33,900 -2,480 Descending FlightAware ADS-B (PAEN / ENA)
Fri 11:43:23 PM 60.6893 -146.6028 274° West 451 519 32,100 -2,160 Descending FlightAware ADS-B (PAEN / ENA)
Fri 11:43:53 PM 60.6938 -146.7313 274° West 441 507 31,200 -1,840 Descending FlightAware ADS-B (PAEN / ENA)
Fri 11:44:38 PM 60.7001 -146.9160 274° West 427 491 29,800 -1,840 Descending FlightAware ADS-B (PAEN / ENA)
Fri 11:45:08 PM 60.7041 -147.0365 274° West 418 481 28,900 -1,700 Descending FlightAware ADS-B (PAEN / ENA)
Fri 11:45:38 PM 60.7078 -147.1507 274° West 411 473 28,100 -1,700 Descending FlightAware ADS-B (PAEN / ENA)
Fri 11:46:08 PM 60.7114 -147.2675 274° West 405 466 27,200 -1,770 Descending FlightAware ADS-B (PAEN / ENA)
Fri 11:46:39 PM 60.7148 -147.3801 274° West 401 461 26,300 -1,770 Descending FlightAware ADS-B (PAEN / ENA)
Fri 11:47:09 PM 60.7182 -147.4965 273° West 397 457 25,400 -1,703 Descending FlightAware ADS-B (PAEN / ENA)
Fri 11:47:53 PM 60.7227 -147.6566 273° West 391 450 24,200 -1,680 Descending FlightAware ADS-B (PAEN / ENA)
Fri 11:48:24 PM 60.7257 -147.7692 273° West 388 447 23,300 -1,658 Descending FlightAware ADS-B (PAEN / ENA)
Fri 11:49:09 PM 60.7301 -147.9339 273° West 383 441 22,100 -1,680 Descending FlightAware ADS-B (PAEN / ENA)
Fri 11:49:39 PM 60.7327 -148.0393 273° West 381 438 21,200 -1,700 Descending FlightAware ADS-B (PAEN / ENA)
Fri 11:50:09 PM 60.7357 -148.1479 275° West 379 436 20,400 -1,600 Descending FlightAware ADS-B (PAEN / ENA)
Fri 11:50:39 PM 60.7444 -148.2532 284° West 381 438 19,600 -1,200 Descending FlightAware ADS-B (PAEN / ENA)
Fri 11:51:09 PM 60.7597 -148.3587 287° West 375 432 19,200 -1,200 Descending FlightAware ADS-B (PAEN / ENA)
Fri 11:51:39 PM 60.7743 -148.4565 287° West 376 433 18,400 -1,600 Descending FlightAware ADS-B (PAEN / ENA)
Fri 11:52:09 PM 60.7894 -148.5591 287° West 376 433 17,600 -1,700 Descending FlightAware ADS-B (PAEN / ENA)
Fri 11:52:39 PM 60.8042 -148.6587 287° West 373 429 16,700 -1,672 Descending FlightAware ADS-B (PAEN / ENA)
Fri 11:53:10 PM 60.8200 -148.7673 287° West 371 427 15,900 -1,569 Descending FlightAware ADS-B (PAEN / ENA)
Fri 11:53:44 PM 60.8364 -148.8805 286° West 369 425 15,000 -1,594 Descending FlightAware ADS-B
Fri 11:54:14 PM 60.8508 -148.9810 286° West 365 420 14,200 -1,600 Descending FlightAware ADS-B
Fri 11:54:44 PM 60.8645 -149.0759 286° West 358 412 13,400 -1,457 Descending FlightAware ADS-B
Fri 11:55:24 PM 60.8834 -149.2048 289° West 346 398 12,500 -1,268 Descending FlightAware ADS-B
Fri 11:55:55 PM 60.9017 -149.2982 294° West 334 384 11,900 -1,099 Descending FlightAware ADS-B
Fri 11:56:35 PM 60.9257 -149.4126 293° West 317 365 11,200 -943 Descending FlightAware ADS-B
Fri 11:57:05 PM 60.9423 -149.4917 294° West 305 351 10,800 -800 Descending FlightAware ADS-B
Fri 11:57:35 PM 60.9585 -149.5691 293° West 288 331 10,400 -960 Descending FlightAware ADS-B
Fri 11:57:55 PM 60.9687 -149.6183 293° West 288 331 10,000 -1,200 Descending FlightAware ADS-B (PAEN / ENA)
Fri 11:58:10 PM 60.9769 -149.6579 293° West 282 325 9,700 -1,077 Descending FlightAware ADS-B (PAEN / ENA)
Fri 11:58:34 PM 60.9893 -149.7176 294° West 276 318 9,300 -882 Descending FlightAware ADS-B
Fri 11:58:44 PM 60.9947 -149.7390 303° West 273 314 9,200 -800 Descending FlightAware ADS-B
Fri 11:59:04 PM 61.0117 -149.7789 318° Northwest 276 318 8,900 -900 Descending FlightAware ADS-B
Fri 11:59:24 PM 61.0302 -149.8100 313° West 277 319 8,600 -1,000 Descending FlightAware ADS-B
Fri 11:59:34 PM 61.0379 -149.8318 300° West 278 320 8,400 -581 Descending FlightAware ADS-B
Fri 11:59:55 PM 61.0500 -149.8836 290° West 276 318 8,300 -649 Descending FlightAware ADS-B
Sat 12:00:11 AM 61.0552 -149.9198 286° West 274 315 8,000 -1,355 Descending FlightAware ADS-B (PAEN / ENA)
Sat 12:00:26 AM 61.0608 -149.9610 285° West 275 316 7,600 -1,800 Descending FlightAware ADS-B (PAEN / ENA)
Sat 12:00:41 AM 61.0654 -149.9974 284° West 276 318 7,100 -1,692 Descending FlightAware ADS-B (PAEN / ENA)
Sat 12:01:05 AM 61.0729 -150.0601 284° West 273 314 6,500 -1,500 Descending FlightAware ADS-B
Sat 12:01:25 AM 61.0788 -150.1112 283° West 270 311 6,000 -1,833 Descending FlightAware ADS-B
Sat 12:01:41 AM 61.0831 -150.1497 283° West 271 312 5,400 -1,935 Descending FlightAware ADS-B (PAEN / ENA)
Sat 12:01:56 AM 61.0870 -150.1877 281° West 265 305 5,000 -1,000 Descending FlightAware ADS-B
Sat 12:02:11 AM 61.0904 -150.2228 282° West 247 284 4,900 -600 Descending FlightAware ADS-B (PAEN / ENA)
Sat 12:02:26 AM 61.0938 -150.2562 283° West 226 260 4,700 -800 Descending FlightAware ADS-B
Sat 12:02:41 AM 61.0970 -150.2870 282° West 211 243 4,500 -600 Descending FlightAware ADS-B (PAEN / ENA)
Sat 12:02:46 AM 61.0982 -150.2962 289° West 206 237 4,500  Level FlightAware ADS-B
Sat 12:02:55 AM 61.1027 -150.3127 308° West 203 234 4,500  Level FlightAware ADS-B
Sat 12:03:06 AM 61.1102 -150.3244 333° Northwest 201 231 4,500  Level FlightAware ADS-B
Sat 12:03:11 AM 61.1148 -150.3273 347° North 198 228 4,500  Level FlightAware ADS-B (PAEN / ENA)
Sat 12:03:16 AM 61.1191 -150.3286 354° North 197 227 4,500 -480 Level FlightAware ADS-B
Sat 12:03:36 AM 61.1366 -150.3303 358° North 194 223 4,300 -900 Descending FlightAware ADS-B
Sat 12:03:56 AM 61.1534 -150.3318 358° North 181 208 3,900 -1,241 Descending FlightAware ADS-B (PAEN / ENA)
Sat 12:04:05 AM 61.1614 -150.3290 23° Northeast 176 203 3,700 -1,600 Descending FlightAware ADS-B
Sat 12:04:11 AM 61.1659 -150.3230 39° Northeast 174 200 3,500 -1,800 Descending FlightAware ADS-B (PAEN / ENA)
Sat 12:04:15 AM 61.1677 -150.3187 56° Northeast 172 198 3,400 -1,714 Descending FlightAware ADS-B
Sat 12:04:25 AM 61.1698 -150.3019 93° East 172 198 3,100 -1,143 Descending FlightAware ADS-B (PAEN / ENA)
Sat 12:04:36 AM 61.1679 -150.2870 106° East 165 190 3,000 -800 Descending FlightAware ADS-B
Sat 12:04:55 AM 61.1656 -150.2554 96° East 163 188 2,700 -923 Descending FlightAware ADS-B (PAEN / ENA)
Sat 12:05:15 AM 61.1647 -150.2250 88° East 162 186 2,400 -968 Descending FlightAware ADS-B
Sat 12:05:26 AM 61.1652 -150.2083 85° East 164 189 2,200 -1,263 Descending FlightAware ADS-B (PAEN / ENA)
Sat 12:05:34 AM 61.1658 -150.1958 85° East 163 188 2,000 -1,000 Descending FlightAware ADS-B (PAEN / ENA)
Sat 12:05:56 AM 61.1671 -150.1622 88° East 156 180 1,700 -714 Descending FlightAware ADS-B
Sat 12:06:16 AM 61.1673 -150.1353 90° East 152 175 1,500 -769 Descending FlightAware ADS-B
Sat 12:06:35 AM 61.1676 -150.1060 89° East 157 181 1,200 -900 Descending FlightAware ADS-B
Sat 12:06:56 AM 61.1678 -150.0752 90° East 155 178 900 -878 Descending FlightAware ADS-B
Sat 12:07:16 AM 61.1678 -150.0444 90° East 151 174 600 -600 Descending FlightAware ADS-B
Sat 12:07:36 AM 61.1678 -150.0177 90° East 104 120 500 -300 Descending FlightAware ADS-B

Login

Don't have an account? Register now (free) for customized features, flight alerts, and more!